sensor_id;sensor_type;location;lat;lon;timestamp;temperature;humidity
3923;DHT22;1976;51.694;6.256;2023-05-10T00:01:34;14.00;99.90
3923;DHT22;1976;51.694;6.256;2023-05-10T00:03:59;14.00;99.90
3923;DHT22;1976;51.694;6.256;2023-05-10T00:06:25;14.00;99.90
3923;DHT22;1976;51.694;6.256;2023-05-10T00:08:51;14.00;99.90
3923;DHT22;1976;51.694;6.256;2023-05-10T00:11:16;14.00;99.90
3923;DHT22;1976;51.694;6.256;2023-05-10T00:13:42;13.90;99.90
3923;DHT22;1976;51.694;6.256;2023-05-10T00:16:08;13.90;99.90
3923;DHT22;1976;51.694;6.256;2023-05-10T00:18:33;14.00;99.90
3923;DHT22;1976;51.694;6.256;2023-05-10T00:20:59;13.90;99.90
3923;DHT22;1976;51.694;6.256;2023-05-10T00:23:25;13.90;99.90
3923;DHT22;1976;51.694;6.256;2023-05-10T00:25:50;13.90;99.90
3923;DHT22;1976;51.694;6.256;2023-05-10T00:28:16;13.90;99.90
3923;DHT22;1976;51.694;6.256;2023-05-10T00:30:42;13.90;99.90
3923;DHT22;1976;51.694;6.256;2023-05-10T00:33:07;13.90;99.90
3923;DHT22;1976;51.694;6.256;2023-05-10T00:35:33;13.90;99.90
3923;DHT22;1976;51.694;6.256;2023-05-10T00:37:59;13.90;99.90
3923;DHT22;1976;51.694;6.256;2023-05-10T00:40:25;13.90;99.90
3923;DHT22;1976;51.694;6.256;2023-05-10T00:42:50;13.90;99.90
3923;DHT22;1976;51.694;6.256;2023-05-10T00:45:16;13.90;99.90
3923;DHT22;1976;51.694;6.256;2023-05-10T00:47:41;13.90;99.90
3923;DHT22;1976;51.694;6.256;2023-05-10T00:50:08;13.80;99.90
3923;DHT22;1976;51.694;6.256;2023-05-10T00:52:34;13.90;99.90
3923;DHT22;1976;51.694;6.256;2023-05-10T00:55:00;14.00;99.90
3923;DHT22;1976;51.694;6.256;2023-05-10T00:57:27;14.00;99.90
3923;DHT22;1976;51.694;6.256;2023-05-10T00:59:52;14.00;99.90
3923;DHT22;1976;51.694;6.256;2023-05-10T01:02:18;14.00;99.90
3923;DHT22;1976;51.694;6.256;2023-05-10T01:04:44;13.90;99.90
3923;DHT22;1976;51.694;6.256;2023-05-10T01:07:10;14.00;99.90
3923;DHT22;1976;51.694;6.256;2023-05-10T01:09:35;13.90;99.90
3923;DHT22;1976;51.694;6.256;2023-05-10T01:12:01;13.90;99.90
3923;DHT22;1976;51.694;6.256;2023-05-10T01:14:28;13.90;99.90
3923;DHT22;1976;51.694;6.256;2023-05-10T01:16:54;13.90;99.90
3923;DHT22;1976;51.694;6.256;2023-05-10T01:19:25;13.90;99.90
3923;DHT22;1976;51.694;6.256;2023-05-10T01:36:27;13.80;99.90
3923;DHT22;1976;51.694;6.256;2023-05-10T01:42:23;13.80;99.90
3923;DHT22;1976;51.694;6.256;2023-05-10T01:47:38;13.80;99.90
3923;DHT22;1976;51.694;6.256;2023-05-10T01:50:10;13.70;99.90
3923;DHT22;1976;51.694;6.256;2023-05-10T01:52:42;13.70;99.90
3923;DHT22;1976;51.694;6.256;2023-05-10T01:55:11;13.90;99.90
3923;DHT22;1976;51.694;6.256;2023-05-10T01:57:42;13.90;99.90
3923;DHT22;1976;51.694;6.256;2023-05-10T02:00:09;13.80;99.90
3923;DHT22;1976;51.694;6.256;2023-05-10T02:02:37;13.70;99.90
3923;DHT22;1976;51.694;6.256;2023-05-10T02:05:05;13.80;99.90
3923;DHT22;1976;51.694;6.256;2023-05-10T02:07:34;13.90;99.90
3923;DHT22;1976;51.694;6.256;2023-05-10T02:10:02;13.90;99.90
3923;DHT22;1976;51.694;6.256;2023-05-10T02:12:31;13.90;99.90
3923;DHT22;1976;51.694;6.256;2023-05-10T02:14:57;13.90;99.90
3923;DHT22;1976;51.694;6.256;2023-05-10T02:17:25;13.90;99.90
3923;DHT22;1976;51.694;6.256;2023-05-10T02:19:51;13.90;99.90
3923;DHT22;1976;51.694;6.256;2023-05-10T02:22:19;13.90;99.90
3923;DHT22;1976;51.694;6.256;2023-05-10T02:24:45;13.80;99.90
3923;DHT22;1976;51.694;6.256;2023-05-10T02:27:12;13.90;99.90
3923;DHT22;1976;51.694;6.256;2023-05-10T02:29:39;14.00;99.90
3923;DHT22;1976;51.694;6.256;2023-05-10T02:32:06;14.00;99.90
3923;DHT22;1976;51.694;6.256;2023-05-10T02:34:33;14.10;99.90
3923;DHT22;1976;51.694;6.256;2023-05-10T02:37:00;14.10;99.90
3923;DHT22;1976;51.694;6.256;2023-05-10T02:39:28;14.20;99.90
3923;DHT22;1976;51.694;6.256;2023-05-10T02:41:54;14.20;99.90
3923;DHT22;1976;51.694;6.256;2023-05-10T02:44:22;14.30;99.90
3923;DHT22;1976;51.694;6.256;2023-05-10T02:46:48;14.30;99.90
3923;DHT22;1976;51.694;6.256;2023-05-10T02:49:15;14.30;99.90
3923;DHT22;1976;51.694;6.256;2023-05-10T02:51:44;14.30;99.90
3923;DHT22;1976;51.694;6.256;2023-05-10T02:54:18;14.40;99.90
3923;DHT22;1976;51.694;6.256;2023-05-10T02:56:49;14.40;99.90
3923;DHT22;1976;51.694;6.256;2023-05-10T02:59:16;14.40;99.90
3923;DHT22;1976;51.694;6.256;2023-05-10T03:01:41;14.50;99.90
3923;DHT22;1976;51.694;6.256;2023-05-10T03:04:07;14.40;99.90
3923;DHT22;1976;51.694;6.256;2023-05-10T03:06:33;14.50;99.90
3923;DHT22;1976;51.694;6.256;2023-05-10T03:08:59;14.50;99.90
3923;DHT22;1976;51.694;6.256;2023-05-10T03:17:06;14.50;99.90
3923;DHT22;1976;51.694;6.256;2023-05-10T03:19:47;14.50;99.90
3923;DHT22;1976;51.694;6.256;2023-05-10T03:22:30;14.50;99.90
3923;DHT22;1976;51.694;6.256;2023-05-10T03:24:56;14.50;99.90
3923;DHT22;1976;51.694;6.256;2023-05-10T03:27:23;14.40;99.90
3923;DHT22;1976;51.694;6.256;2023-05-10T03:29:51;14.30;99.90
3923;DHT22;1976;51.694;6.256;2023-05-10T03:32:18;14.30;99.90
3923;DHT22;1976;51.694;6.256;2023-05-10T03:34:43;14.40;99.90
3923;DHT22;1976;51.694;6.256;2023-05-10T03:37:09;14.40;99.90
3923;DHT22;1976;51.694;6.256;2023-05-10T03:39:35;14.40;99.90
3923;DHT22;1976;51.694;6.256;2023-05-10T03:42:01;14.50;99.90
3923;DHT22;1976;51.694;6.256;2023-05-10T03:44:27;14.40;99.90
3923;DHT22;1976;51.694;6.256;2023-05-10T03:46:52;14.40;99.90
3923;DHT22;1976;51.694;6.256;2023-05-10T03:49:18;14.40;99.90
3923;DHT22;1976;51.694;6.256;2023-05-10T03:51:44;14.30;99.90
3923;DHT22;1976;51.694;6.256;2023-05-10T03:54:09;14.40;99.90
3923;DHT22;1976;51.694;6.256;2023-05-10T03:56:35;14.30;99.90
3923;DHT22;1976;51.694;6.256;2023-05-10T03:59:01;14.30;99.90
3923;DHT22;1976;51.694;6.256;2023-05-10T04:01:26;14.40;99.90
3923;DHT22;1976;51.694;6.256;2023-05-10T04:03:52;14.30;99.90
3923;DHT22;1976;51.694;6.256;2023-05-10T04:06:18;14.20;99.90
3923;DHT22;1976;51.694;6.256;2023-05-10T04:08:43;14.30;99.90
3923;DHT22;1976;51.694;6.256;2023-05-10T04:11:11;14.30;99.90
3923;DHT22;1976;51.694;6.256;2023-05-10T04:13:37;14.30;99.90
3923;DHT22;1976;51.694;6.256;2023-05-10T04:16:03;14.30;99.90
3923;DHT22;1976;51.694;6.256;2023-05-10T04:18:29;14.30;99.90
3923;DHT22;1976;51.694;6.256;2023-05-10T04:20:55;14.20;99.90
3923;DHT22;1976;51.694;6.256;2023-05-10T04:23:21;14.30;99.90
3923;DHT22;1976;51.694;6.256;2023-05-10T04:25:46;14.30;99.90
3923;DHT22;1976;51.694;6.256;2023-05-10T04:28:12;14.30;99.90
3923;DHT22;1976;51.694;6.256;2023-05-10T04:30:38;14.20;99.90
3923;DHT22;1976;51.694;6.256;2023-05-10T04:33:05;14.20;99.90
3923;DHT22;1976;51.694;6.256;2023-05-10T04:35:30;14.10;99.90
3923;DHT22;1976;51.694;6.256;2023-05-10T04:37:56;14.10;99.90
3923;DHT22;1976;51.694;6.256;2023-05-10T04:40:22;14.10;99.90
3923;DHT22;1976;51.694;6.256;2023-05-10T04:42:48;14.10;99.90
3923;DHT22;1976;51.694;6.256;2023-05-10T04:45:13;14.10;99.90
3923;DHT22;1976;51.694;6.256;2023-05-10T04:47:42;14.20;99.90
3923;DHT22;1976;51.694;6.256;2023-05-10T04:50:08;14.20;99.90
3923;DHT22;1976;51.694;6.256;2023-05-10T04:52:34;14.30;99.90
3923;DHT22;1976;51.694;6.256;2023-05-10T04:54:59;14.20;99.90
3923;DHT22;1976;51.694;6.256;2023-05-10T04:57:25;14.20;99.90
3923;DHT22;1976;51.694;6.256;2023-05-10T04:59:51;14.20;99.90
3923;DHT22;1976;51.694;6.256;2023-05-10T05:02:17;14.10;99.90
3923;DHT22;1976;51.694;6.256;2023-05-10T05:04:43;14.00;99.90
3923;DHT22;1976;51.694;6.256;2023-05-10T05:07:08;13.90;99.90
3923;DHT22;1976;51.694;6.256;2023-05-10T05:09:34;14.00;99.90
3923;DHT22;1976;51.694;6.256;2023-05-10T05:11:59;14.00;99.90
3923;DHT22;1976;51.694;6.256;2023-05-10T05:14:25;14.00;99.90
3923;DHT22;1976;51.694;6.256;2023-05-10T05:16:53;14.00;99.90
3923;DHT22;1976;51.694;6.256;2023-05-10T05:19:19;14.10;99.90
3923;DHT22;1976;51.694;6.256;2023-05-10T05:21:45;14.10;99.90
3923;DHT22;1976;51.694;6.256;2023-05-10T05:24:10;14.10;99.90
3923;DHT22;1976;51.694;6.256;2023-05-10T05:26:38;14.10;99.90
3923;DHT22;1976;51.694;6.256;2023-05-10T05:29:03;14.10;99.90
3923;DHT22;1976;51.694;6.256;2023-05-10T05:31:29;14.20;99.90
3923;DHT22;1976;51.694;6.256;2023-05-10T05:33:55;14.20;99.90
3923;DHT22;1976;51.694;6.256;2023-05-10T05:36:21;14.20;99.90
3923;DHT22;1976;51.694;6.256;2023-05-10T05:38:47;14.20;99.90
3923;DHT22;1976;51.694;6.256;2023-05-10T05:41:13;14.30;99.90
3923;DHT22;1976;51.694;6.256;2023-05-10T05:43:38;14.30;99.90
3923;DHT22;1976;51.694;6.256;2023-05-10T05:46:04;14.40;99.90
3923;DHT22;1976;51.694;6.256;2023-05-10T05:48:30;14.40;99.90
3923;DHT22;1976;51.694;6.256;2023-05-10T05:50:57;14.50;99.90
3923;DHT22;1976;51.694;6.256;2023-05-10T05:53:23;14.60;99.90
3923;DHT22;1976;51.694;6.256;2023-05-10T05:55:53;14.60;99.90
3923;DHT22;1976;51.694;6.256;2023-05-10T05:58:19;14.60;99.90
3923;DHT22;1976;51.694;6.256;2023-05-10T06:00:45;14.70;99.90
3923;DHT22;1976;51.694;6.256;2023-05-10T06:03:11;14.70;99.90
3923;DHT22;1976;51.694;6.256;2023-05-10T06:05:36;14.70;99.90
3923;DHT22;1976;51.694;6.256;2023-05-10T06:08:02;14.90;99.90
3923;DHT22;1976;51.694;6.256;2023-05-10T06:10:28;15.00;99.90
3923;DHT22;1976;51.694;6.256;2023-05-10T06:12:53;15.00;99.90
3923;DHT22;1976;51.694;6.256;2023-05-10T06:15:19;15.20;99.90
3923;DHT22;1976;51.694;6.256;2023-05-10T06:17:45;15.30;99.90
3923;DHT22;1976;51.694;6.256;2023-05-10T06:20:12;15.30;99.90
3923;DHT22;1976;51.694;6.256;2023-05-10T06:22:38;15.40;99.90
3923;DHT22;1976;51.694;6.256;2023-05-10T06:25:04;15.40;99.90
3923;DHT22;1976;51.694;6.256;2023-05-10T06:27:30;15.40;99.90
3923;DHT22;1976;51.694;6.256;2023-05-10T06:29:55;15.50;99.90
3923;DHT22;1976;51.694;6.256;2023-05-10T06:32:21;14.30;99.90
3923;DHT22;1976;51.694;6.256;2023-05-10T06:34:47;15.60;99.90
3923;DHT22;1976;51.694;6.256;2023-05-10T06:37:12;15.50;99.90
3923;DHT22;1976;51.694;6.256;2023-05-10T06:39:38;15.60;99.90
3923;DHT22;1976;51.694;6.256;2023-05-10T06:42:04;15.70;99.90
3923;DHT22;1976;51.694;6.256;2023-05-10T06:44:30;15.60;99.90
3923;DHT22;1976;51.694;6.256;2023-05-10T06:46:55;15.50;99.90
3923;DHT22;1976;51.694;6.256;2023-05-10T06:49:21;15.50;99.90
3923;DHT22;1976;51.694;6.256;2023-05-10T06:51:47;15.40;99.90
3923;DHT22;1976;51.694;6.256;2023-05-10T06:54:13;15.20;99.90
3923;DHT22;1976;51.694;6.256;2023-05-10T06:56:39;15.20;99.90
3923;DHT22;1976;51.694;6.256;2023-05-10T06:59:05;15.30;99.90
3923;DHT22;1976;51.694;6.256;2023-05-10T07:01:30;15.40;99.90
3923;DHT22;1976;51.694;6.256;2023-05-10T07:03:56;15.40;99.90
3923;DHT22;1976;51.694;6.256;2023-05-10T07:06:21;15.50;99.90
3923;DHT22;1976;51.694;6.256;2023-05-10T07:08:47;15.60;99.90
3923;DHT22;1976;51.694;6.256;2023-05-10T07:11:13;15.70;99.90
3923;DHT22;1976;51.694;6.256;2023-05-10T07:13:38;15.70;99.90
3923;DHT22;1976;51.694;6.256;2023-05-10T07:16:06;16.00;99.90
3923;DHT22;1976;51.694;6.256;2023-05-10T07:18:33;16.00;99.90
3923;DHT22;1976;51.694;6.256;2023-05-10T07:20:59;16.00;99.90
3923;DHT22;1976;51.694;6.256;2023-05-10T07:23:24;16.10;99.90
3923;DHT22;1976;51.694;6.256;2023-05-10T07:25:50;16.10;99.90
3923;DHT22;1976;51.694;6.256;2023-05-10T07:28:19;16.40;99.90
3923;DHT22;1976;51.694;6.256;2023-05-10T07:30:45;16.60;99.90
3923;DHT22;1976;51.694;6.256;2023-05-10T07:33:12;16.50;99.90
3923;DHT22;1976;51.694;6.256;2023-05-10T07:35:38;16.50;99.90
3923;DHT22;1976;51.694;6.256;2023-05-10T07:38:04;16.70;99.90
3923;DHT22;1976;51.694;6.256;2023-05-10T07:40:30;16.70;99.90
3923;DHT22;1976;51.694;6.256;2023-05-10T07:42:56;16.70;99.90
3923;DHT22;1976;51.694;6.256;2023-05-10T07:45:22;16.50;99.90
3923;DHT22;1976;51.694;6.256;2023-05-10T07:47:48;16.40;99.90
3923;DHT22;1976;51.694;6.256;2023-05-10T07:50:14;16.20;99.90
3923;DHT22;1976;51.694;6.256;2023-05-10T07:52:39;16.10;99.90
3923;DHT22;1976;51.694;6.256;2023-05-10T07:55:06;16.10;99.90
3923;DHT22;1976;51.694;6.256;2023-05-10T07:57:33;16.10;99.90
3923;DHT22;1976;51.694;6.256;2023-05-10T07:59:59;16.00;99.90
3923;DHT22;1976;51.694;6.256;2023-05-10T08:02:24;16.10;99.90
3923;DHT22;1976;51.694;6.256;2023-05-10T08:04:50;16.20;99.90
3923;DHT22;1976;51.694;6.256;2023-05-10T08:07:17;16.30;99.90
3923;DHT22;1976;51.694;6.256;2023-05-10T08:09:42;16.20;99.90
3923;DHT22;1976;51.694;6.256;2023-05-10T08:12:08;16.30;99.90
3923;DHT22;1976;51.694;6.256;2023-05-10T08:14:34;16.20;99.90
3923;DHT22;1976;51.694;6.256;2023-05-10T08:17:02;16.20;99.90
3923;DHT22;1976;51.694;6.256;2023-05-10T08:19:28;17.60;99.90
3923;DHT22;1976;51.694;6.256;2023-05-10T08:21:54;16.10;99.90
3923;DHT22;1976;51.694;6.256;2023-05-10T08:24:21;16.10;99.90
3923;DHT22;1976;51.694;6.256;2023-05-10T08:26:47;16.10;99.90
3923;DHT22;1976;51.694;6.256;2023-05-10T08:29:13;16.10;99.90
3923;DHT22;1976;51.694;6.256;2023-05-10T08:31:39;16.10;99.90
3923;DHT22;1976;51.694;6.256;2023-05-10T08:34:04;15.90;99.90
3923;DHT22;1976;51.694;6.256;2023-05-10T08:36:30;15.80;99.90
3923;DHT22;1976;51.694;6.256;2023-05-10T08:38:57;15.60;99.90
3923;DHT22;1976;51.694;6.256;2023-05-10T08:41:24;15.50;99.90
3923;DHT22;1976;51.694;6.256;2023-05-10T08:43:52;15.50;99.90
3923;DHT22;1976;51.694;6.256;2023-05-10T08:46:19;15.60;99.90
3923;DHT22;1976;51.694;6.256;2023-05-10T08:48:47;15.60;99.90
3923;DHT22;1976;51.694;6.256;2023-05-10T08:51:15;15.60;99.90
3923;DHT22;1976;51.694;6.256;2023-05-10T08:53:44;15.70;99.90
3923;DHT22;1976;51.694;6.256;2023-05-10T08:56:10;15.80;99.90
3923;DHT22;1976;51.694;6.256;2023-05-10T08:58:36;15.80;99.90
3923;DHT22;1976;51.694;6.256;2023-05-10T09:01:03;15.90;99.90
3923;DHT22;1976;51.694;6.256;2023-05-10T09:03:30;16.10;99.90
3923;DHT22;1976;51.694;6.256;2023-05-10T09:05:56;15.80;99.90
3923;DHT22;1976;51.694;6.256;2023-05-10T09:08:23;15.70;99.90
3923;DHT22;1976;51.694;6.256;2023-05-10T09:10:53;15.40;99.90
3923;DHT22;1976;51.694;6.256;2023-05-10T09:13:21;15.30;99.90
3923;DHT22;1976;51.694;6.256;2023-05-10T09:15:47;15.10;99.90
3923;DHT22;1976;51.694;6.256;2023-05-10T09:18:13;14.80;99.90
3923;DHT22;1976;51.694;6.256;2023-05-10T09:20:39;14.80;99.90
3923;DHT22;1976;51.694;6.256;2023-05-10T09:23:05;14.80;99.90
3923;DHT22;1976;51.694;6.256;2023-05-10T09:25:31;14.80;99.90
3923;DHT22;1976;51.694;6.256;2023-05-10T09:27:59;14.80;99.90
3923;DHT22;1976;51.694;6.256;2023-05-10T09:30:26;14.60;99.90
3923;DHT22;1976;51.694;6.256;2023-05-10T09:32:53;14.70;99.90
3923;DHT22;1976;51.694;6.256;2023-05-10T09:35:21;14.80;99.90
3923;DHT22;1976;51.694;6.256;2023-05-10T09:37:49;14.80;99.90
3923;DHT22;1976;51.694;6.256;2023-05-10T09:40:17;14.60;99.90
3923;DHT22;1976;51.694;6.256;2023-05-10T09:42:55;14.60;99.90
3923;DHT22;1976;51.694;6.256;2023-05-10T09:45:22;14.70;99.90
3923;DHT22;1976;51.694;6.256;2023-05-10T09:47:48;14.70;99.90
3923;DHT22;1976;51.694;6.256;2023-05-10T09:50:13;14.90;99.90
3923;DHT22;1976;51.694;6.256;2023-05-10T09:55:12;15.00;99.90
3923;DHT22;1976;51.694;6.256;2023-05-10T09:57:38;15.00;99.90
3923;DHT22;1976;51.694;6.256;2023-05-10T10:00:05;15.00;99.90
3923;DHT22;1976;51.694;6.256;2023-05-10T10:02:31;15.00;99.90
3923;DHT22;1976;51.694;6.256;2023-05-10T10:05:01;15.10;99.90
3923;DHT22;1976;51.694;6.256;2023-05-10T10:07:28;15.10;99.90
3923;DHT22;1976;51.694;6.256;2023-05-10T10:09:55;15.40;99.90
3923;DHT22;1976;51.694;6.256;2023-05-10T10:12:20;15.70;99.90
3923;DHT22;1976;51.694;6.256;2023-05-10T10:14:47;15.80;99.90
3923;DHT22;1976;51.694;6.256;2023-05-10T10:17:13;15.90;99.90
3923;DHT22;1976;51.694;6.256;2023-05-10T10:19:40;16.10;99.90
3923;DHT22;1976;51.694;6.256;2023-05-10T10:22:06;18.00;99.90
3923;DHT22;1976;51.694;6.256;2023-05-10T10:24:32;16.50;99.90
3923;DHT22;1976;51.694;6.256;2023-05-10T10:32:42;17.20;99.90
3923;DHT22;1976;51.694;6.256;2023-05-10T10:35:13;17.20;99.90
3923;DHT22;1976;51.694;6.256;2023-05-10T10:37:50;17.00;99.90
3923;DHT22;1976;51.694;6.256;2023-05-10T10:40:31;16.90;99.90
3923;DHT22;1976;51.694;6.256;2023-05-10T10:42:58;16.90;99.90
3923;DHT22;1976;51.694;6.256;2023-05-10T10:45:24;16.90;99.90
3923;DHT22;1976;51.694;6.256;2023-05-10T10:48:23;16.90;99.90
3923;DHT22;1976;51.694;6.256;2023-05-10T10:50:56;16.90;99.90
3923;DHT22;1976;51.694;6.256;2023-05-10T10:53:26;16.80;99.90
3923;DHT22;1976;51.694;6.256;2023-05-10T10:56:05;16.70;99.90
3923;DHT22;1976;51.694;6.256;2023-05-10T10:58:33;16.80;99.90
3923;DHT22;1976;51.694;6.256;2023-05-10T11:01:14;17.00;99.90
3923;DHT22;1976;51.694;6.256;2023-05-10T11:03:40;17.30;99.90
3923;DHT22;1976;51.694;6.256;2023-05-10T11:06:06;17.80;99.90
3923;DHT22;1976;51.694;6.256;2023-05-10T11:08:41;18.30;99.90
3923;DHT22;1976;51.694;6.256;2023-05-10T11:11:08;18.80;99.90
3923;DHT22;1976;51.694;6.256;2023-05-10T11:13:46;18.90;99.90
3923;DHT22;1976;51.694;6.256;2023-05-10T11:16:25;18.60;99.90
3923;DHT22;1976;51.694;6.256;2023-05-10T11:19:16;18.30;99.90
3923;DHT22;1976;51.694;6.256;2023-05-10T11:24:30;17.80;99.90
3923;DHT22;1976;51.694;6.256;2023-05-10T11:26:56;17.60;99.90
3923;DHT22;1976;51.694;6.256;2023-05-10T11:29:22;17.60;99.90
3923;DHT22;1976;51.694;6.256;2023-05-10T11:31:49;17.60;99.90
3923;DHT22;1976;51.694;6.256;2023-05-10T11:34:27;17.70;99.90
3923;DHT22;1976;51.694;6.256;2023-05-10T11:36:55;17.90;99.90
3923;DHT22;1976;51.694;6.256;2023-05-10T11:39:22;18.30;99.90
3923;DHT22;1976;51.694;6.256;2023-05-10T11:41:50;18.50;99.90
3923;DHT22;1976;51.694;6.256;2023-05-10T11:44:16;18.80;99.90
3923;DHT22;1976;51.694;6.256;2023-05-10T11:46:42;19.00;99.90
3923;DHT22;1976;51.694;6.256;2023-05-10T11:49:08;19.00;99.90
3923;DHT22;1976;51.694;6.256;2023-05-10T11:51:34;19.00;99.90
3923;DHT22;1976;51.694;6.256;2023-05-10T11:54:08;18.90;99.90
3923;DHT22;1976;51.694;6.256;2023-05-10T11:56:34;19.00;99.90
3923;DHT22;1976;51.694;6.256;2023-05-10T11:59:00;19.00;99.90
3923;DHT22;1976;51.694;6.256;2023-05-10T12:01:28;19.00;99.90
3923;DHT22;1976;51.694;6.256;2023-05-10T12:03:56;19.00;99.90
3923;DHT22;1976;51.694;6.256;2023-05-10T12:06:32;19.10;99.90
3923;DHT22;1976;51.694;6.256;2023-05-10T12:09:06;19.20;99.90
3923;DHT22;1976;51.694;6.256;2023-05-10T12:11:32;19.30;99.90
3923;DHT22;1976;51.694;6.256;2023-05-10T12:13:57;19.30;99.90
3923;DHT22;1976;51.694;6.256;2023-05-10T12:16:25;19.20;99.90
3923;DHT22;1976;51.694;6.256;2023-05-10T12:18:53;19.10;99.90
3923;DHT22;1976;51.694;6.256;2023-05-10T12:21:20;18.90;99.90
3923;DHT22;1976;51.694;6.256;2023-05-10T12:23:48;18.80;99.90
3923;DHT22;1976;51.694;6.256;2023-05-10T12:26:15;18.70;99.90
3923;DHT22;1976;51.694;6.256;2023-05-10T12:28:40;18.70;99.90
3923;DHT22;1976;51.694;6.256;2023-05-10T12:31:07;18.60;99.90
3923;DHT22;1976;51.694;6.256;2023-05-10T12:33:37;18.60;99.90
3923;DHT22;1976;51.694;6.256;2023-05-10T12:36:10;18.50;99.90
3923;DHT22;1976;51.694;6.256;2023-05-10T12:41:12;18.50;99.90
3923;DHT22;1976;51.694;6.256;2023-05-10T12:43:39;18.40;99.90
3923;DHT22;1976;51.694;6.256;2023-05-10T12:48:31;18.60;99.90
3923;DHT22;1976;51.694;6.256;2023-05-10T12:50:59;18.80;99.90
3923;DHT22;1976;51.694;6.256;2023-05-10T12:53:25;19.00;99.90
3923;DHT22;1976;51.694;6.256;2023-05-10T12:55:51;19.10;99.90
3923;DHT22;1976;51.694;6.256;2023-05-10T12:58:16;19.00;99.90
3923;DHT22;1976;51.694;6.256;2023-05-10T13:00:42;19.00;99.90
3923;DHT22;1976;51.694;6.256;2023-05-10T13:03:09;19.20;99.90
3923;DHT22;1976;51.694;6.256;2023-05-10T13:05:36;19.40;99.90
3923;DHT22;1976;51.694;6.256;2023-05-10T13:08:02;19.50;99.90
3923;DHT22;1976;51.694;6.256;2023-05-10T13:10:29;19.50;99.90
3923;DHT22;1976;51.694;6.256;2023-05-10T13:12:56;19.40;99.90
3923;DHT22;1976;51.694;6.256;2023-05-10T13:15:22;19.40;99.90
3923;DHT22;1976;51.694;6.256;2023-05-10T13:17:47;19.50;99.90
3923;DHT22;1976;51.694;6.256;2023-05-10T13:20:13;19.70;99.90
3923;DHT22;1976;51.694;6.256;2023-05-10T13:22:41;19.90;99.90
3923;DHT22;1976;51.694;6.256;2023-05-10T13:25:07;20.20;99.90
3923;DHT22;1976;51.694;6.256;2023-05-10T13:27:33;20.40;99.90
3923;DHT22;1976;51.694;6.256;2023-05-10T13:29:59;20.50;99.90
3923;DHT22;1976;51.694;6.256;2023-05-10T13:32:25;20.90;99.90
3923;DHT22;1976;51.694;6.256;2023-05-10T13:34:51;21.20;99.90
3923;DHT22;1976;51.694;6.256;2023-05-10T13:37:17;21.50;99.90
3923;DHT22;1976;51.694;6.256;2023-05-10T13:39:43;21.40;99.90
3923;DHT22;1976;51.694;6.256;2023-05-10T13:42:09;20.80;99.90
3923;DHT22;1976;51.694;6.256;2023-05-10T13:44:34;20.00;99.90
3923;DHT22;1976;51.694;6.256;2023-05-10T13:47:01;19.60;99.90
3923;DHT22;1976;51.694;6.256;2023-05-10T13:49:27;19.50;99.90
3923;DHT22;1976;51.694;6.256;2023-05-10T13:51:52;19.30;99.90
3923;DHT22;1976;51.694;6.256;2023-05-10T13:54:18;18.80;99.90
3923;DHT22;1976;51.694;6.256;2023-05-10T13:56:47;18.70;99.90
3923;DHT22;1976;51.694;6.256;2023-05-10T13:59:14;18.00;99.90
3923;DHT22;1976;51.694;6.256;2023-05-10T14:01:40;18.00;99.90
3923;DHT22;1976;51.694;6.256;2023-05-10T14:04:06;17.70;99.90
3923;DHT22;1976;51.694;6.256;2023-05-10T14:06:35;17.60;99.90
3923;DHT22;1976;51.694;6.256;2023-05-10T14:09:02;17.20;99.90
3923;DHT22;1976;51.694;6.256;2023-05-10T14:11:27;16.60;99.90
3923;DHT22;1976;51.694;6.256;2023-05-10T14:13:53;16.30;99.90
3923;DHT22;1976;51.694;6.256;2023-05-10T14:16:19;16.00;99.90
3923;DHT22;1976;51.694;6.256;2023-05-10T14:18:45;15.70;99.90
3923;DHT22;1976;51.694;6.256;2023-05-10T14:21:11;15.60;99.90
3923;DHT22;1976;51.694;6.256;2023-05-10T14:23:37;15.40;99.90
3923;DHT22;1976;51.694;6.256;2023-05-10T14:26:03;15.20;99.90
3923;DHT22;1976;51.694;6.256;2023-05-10T14:28:28;15.20;99.90
3923;DHT22;1976;51.694;6.256;2023-05-10T14:30:54;15.10;99.90
3923;DHT22;1976;51.694;6.256;2023-05-10T14:33:19;15.00;99.90
3923;DHT22;1976;51.694;6.256;2023-05-10T14:35:46;14.90;99.90
3923;DHT22;1976;51.694;6.256;2023-05-10T14:38:13;14.80;99.90
3923;DHT22;1976;51.694;6.256;2023-05-10T14:40:38;14.70;99.90
3923;DHT22;1976;51.694;6.256;2023-05-10T14:45:30;14.60;99.90
3923;DHT22;1976;51.694;6.256;2023-05-10T14:47:57;14.60;99.90
3923;DHT22;1976;51.694;6.256;2023-05-10T14:50:22;14.70;99.90
3923;DHT22;1976;51.694;6.256;2023-05-10T14:52:48;14.60;99.90
3923;DHT22;1976;51.694;6.256;2023-05-10T14:55:14;14.50;99.90
3923;DHT22;1976;51.694;6.256;2023-05-10T14:57:40;14.60;99.90
3923;DHT22;1976;51.694;6.256;2023-05-10T15:00:07;14.70;99.90
3923;DHT22;1976;51.694;6.256;2023-05-10T15:02:33;14.70;99.90
3923;DHT22;1976;51.694;6.256;2023-05-10T15:04:58;14.70;99.90
3923;DHT22;1976;51.694;6.256;2023-05-10T15:07:24;14.70;99.90
3923;DHT22;1976;51.694;6.256;2023-05-10T15:09:50;14.60;99.90
3923;DHT22;1976;51.694;6.256;2023-05-10T15:12:17;14.70;99.90
3923;DHT22;1976;51.694;6.256;2023-05-10T15:14:43;14.70;99.90
3923;DHT22;1976;51.694;6.256;2023-05-10T15:17:09;14.80;99.90
3923;DHT22;1976;51.694;6.256;2023-05-10T15:19:36;14.90;99.90
3923;DHT22;1976;51.694;6.256;2023-05-10T15:22:02;15.00;99.90
3923;DHT22;1976;51.694;6.256;2023-05-10T15:24:28;15.00;99.90
3923;DHT22;1976;51.694;6.256;2023-05-10T15:26:54;15.30;99.90
3923;DHT22;1976;51.694;6.256;2023-05-10T15:29:19;15.60;99.90
3923;DHT22;1976;51.694;6.256;2023-05-10T15:31:47;15.70;99.90
3923;DHT22;1976;51.694;6.256;2023-05-10T15:34:13;15.70;99.90
3923;DHT22;1976;51.694;6.256;2023-05-10T15:36:39;15.60;99.90
3923;DHT22;1976;51.694;6.256;2023-05-10T15:39:05;15.60;99.90
3923;DHT22;1976;51.694;6.256;2023-05-10T15:41:31;15.80;99.90
3923;DHT22;1976;51.694;6.256;2023-05-10T15:43:57;16.10;99.90
3923;DHT22;1976;51.694;6.256;2023-05-10T15:46:25;16.30;99.90
3923;DHT22;1976;51.694;6.256;2023-05-10T15:48:51;16.50;99.90
3923;DHT22;1976;51.694;6.256;2023-05-10T15:51:17;16.80;99.90
3923;DHT22;1976;51.694;6.256;2023-05-10T15:53:44;17.30;99.90
3923;DHT22;1976;51.694;6.256;2023-05-10T15:56:10;17.70;99.90
3923;DHT22;1976;51.694;6.256;2023-05-10T15:58:37;18.10;99.90
3923;DHT22;1976;51.694;6.256;2023-05-10T16:01:03;18.20;99.90
3923;DHT22;1976;51.694;6.256;2023-05-10T16:03:30;18.40;99.90
3923;DHT22;1976;51.694;6.256;2023-05-10T16:05:56;18.40;99.90
3923;DHT22;1976;51.694;6.256;2023-05-10T16:08:21;18.50;99.90
3923;DHT22;1976;51.694;6.256;2023-05-10T16:10:48;18.40;99.90
3923;DHT22;1976;51.694;6.256;2023-05-10T16:13:14;18.30;99.90
3923;DHT22;1976;51.694;6.256;2023-05-10T16:15:40;18.30;99.90
3923;DHT22;1976;51.694;6.256;2023-05-10T16:18:06;18.20;99.90
3923;DHT22;1976;51.694;6.256;2023-05-10T16:20:31;18.10;99.90
3923;DHT22;1976;51.694;6.256;2023-05-10T16:23:02;18.10;99.90
3923;DHT22;1976;51.694;6.256;2023-05-10T16:25:28;18.10;99.90
3923;DHT22;1976;51.694;6.256;2023-05-10T16:27:54;17.70;99.90
3923;DHT22;1976;51.694;6.256;2023-05-10T16:30:20;17.20;99.90
3923;DHT22;1976;51.694;6.256;2023-05-10T16:32:45;16.90;99.90
3923;DHT22;1976;51.694;6.256;2023-05-10T16:35:11;16.60;99.90
3923;DHT22;1976;51.694;6.256;2023-05-10T16:37:37;16.70;99.90
3923;DHT22;1976;51.694;6.256;2023-05-10T16:40:03;16.70;99.90
3923;DHT22;1976;51.694;6.256;2023-05-10T16:42:29;16.70;99.90
3923;DHT22;1976;51.694;6.256;2023-05-10T16:44:54;16.70;99.90